Terminal Aerodrome Forecast
Issued by NWS

Home | Current Version | Previous Version | Text Only | Print | Product List | Glossary On
Versions: 1 2 3 4 5 6 7 8 9 10 11 12 13 14 15 16 17 18 19 20 21 22 23 24 25 26 27 28 29 30
000
FTUS41 KBOX 261732
TAFBAF
TAF
KBAF 261732Z 2618/2718 03006KT 1/2SM SN OVC008
     FM261900 03007KT 1/4SM +SN OVC008
     FM270000 01009KT 1/2SM SN OVC010 WS020/04040KT
     FM270100 01009KT 1/2SM SN OVC008
     FM270300 35008KT P6SM OVC008
     FM270600 33007KT P6SM OVC025
     FM270900 32006KT P6SM OVC015=

USA.gov is the U.S. government's official web portal to all federal, state and local government web resources and services.